Time;durP1;ratioP1;P1;durP2;ratioP2;P2;SDS_P1;SDS_P2;PMS_P1;PMS_P2;Temp;Humidity;BMP_temperature;BMP_pressure;BME280_temperature;BME280_humidity;BME280_pressure;Samples;Min_cycle;Max_cycle;Signal;HPM_P1;HPM_P2
2023/09/28 00:01:46;;;;;;;7.30;3.80;;;;;;;15.84;62.94;93049.06;2029857;70;20132;-75
2023/09/28 00:04:11;;;;;;;7.18;3.38;;;;;;;16.14;61.71;93047.66;2029828;70;20596;-75
2023/09/28 00:06:37;;;;;;;8.32;3.22;;;;;;;16.17;61.25;93054.13;2029606;70;20184;-74
2023/09/28 00:09:03;;;;;;;7.50;3.45;;;;;;;16.23;60.32;93046.63;2029696;70;20244;-75
2023/09/28 00:11:31;;;;;;;5.50;3.40;;;;;;;16.07;60.86;93050.84;2029567;70;20525;-77
2023/09/28 00:13:56;;;;;;;6.03;3.45;;;;;;;16.15;59.98;93051.94;2029676;70;20153;-75
2023/09/28 00:16:22;;;;;;;11.68;3.45;;;;;;;16.16;60.90;93050.56;2029754;70;20588;-75
2023/09/28 00:18:49;;;;;;;10.30;3.30;;;;;;;16.12;60.61;93052.47;2029592;70;20164;-75
2023/09/28 00:21:14;;;;;;;7.53;3.60;;;;;;;16.15;61.23;93046.25;2029663;70;20145;-74
2023/09/28 00:23:41;;;;;;;7.20;3.38;;;;;;;16.13;61.19;93051.13;2029482;70;20217;-75
2023/09/28 00:26:07;;;;;;;6.70;3.28;;;;;;;16.15;60.93;93049.09;2029651;70;20153;-75
2023/09/28 00:28:34;;;;;;;5.38;3.10;;;;;;;15.99;59.87;93054.78;2029491;70;20154;-76
2023/09/28 00:31:04;;;;;;;8.63;3.58;;;;;;;16.14;60.20;93055.44;2029431;70;20180;-76
2023/09/28 00:33:31;;;;;;;8.15;3.47;;;;;;;16.00;60.40;93049.84;2029096;70;20156;-76
2023/09/28 00:35:56;;;;;;;7.68;3.20;;;;;;;15.97;60.70;93048.25;2029461;70;20615;-76
2023/09/28 00:38:22;;;;;;;5.43;3.30;;;;;;;15.90;63.01;93055.06;2029814;70;20151;-76
2023/09/28 00:40:47;;;;;;;9.70;3.42;;;;;;;16.04;61.53;93057.81;2029547;70;20805;-76
2023/09/28 00:43:14;;;;;;;7.15;3.55;;;;;;;16.06;62.28;93061.47;2029615;70;20197;-74
2023/09/28 00:45:40;;;;;;;8.50;3.50;;;;;;;15.93;61.88;93053.75;2029130;70;20168;-73
2023/09/28 00:48:09;;;;;;;7.75;3.67;;;;;;;15.90;60.51;93052.94;2029008;70;20217;-74
2023/09/28 00:50:35;;;;;;;8.07;3.60;;;;;;;15.82;61.55;93060.34;2029053;70;20670;-75
2023/09/28 00:53:04;;;;;;;6.47;3.10;;;;;;;15.72;62.35;93060.59;2029003;70;20140;-74
2023/09/28 00:55:30;;;;;;;7.63;3.20;;;;;;;15.56;61.85;93063.34;2029536;70;20636;-75
2023/09/28 00:58:01;;;;;;;9.20;3.72;;;;;;;15.73;61.75;93068.47;2030980;70;20204;-77
2023/09/28 01:00:33;;;;;;;8.07;3.40;;;;;;;15.47;62.29;93036.69;2030932;70;20235;-76
2023/09/28 01:03:02;;;;;;;8.07;3.43;;;;;;;15.66;61.87;93066.69;2029087;70;20161;-75
2023/09/28 01:05:33;;;;;;;7.05;3.25;;;;;;;15.65;62.26;93065.22;2029728;70;20323;-76
2023/09/28 01:08:11;;;;;;;7.80;3.20;;;;;;;15.70;61.69;93055.53;2029513;70;20190;-75
2023/09/28 01:10:38;;;;;;;6.70;3.28;;;;;;;15.69;62.03;93068.28;2028822;70;20669;-76
2023/09/28 01:15:42;;;;;;;7.63;3.17;;;;;;;15.51;62.64;93061.69;2029310;70;20133;-73
2023/09/28 01:18:09;;;;;;;6.27;3.30;;;;;;;15.54;62.63;93065.38;2029714;70;20174;-74
2023/09/28 01:20:37;;;;;;;6.13;3.45;;;;;;;15.42;62.38;93074.75;2029679;70;20149;-73
2023/09/28 01:23:04;;;;;;;5.95;3.70;;;;;;;15.42;62.57;93066.22;2029027;70;20160;-74
2023/09/28 01:25:33;;;;;;;7.72;3.47;;;;;;;15.34;62.31;93067.94;2029256;70;20168;-75
2023/09/28 01:28:00;;;;;;;7.85;3.63;;;;;;;14.96;63.66;93081.66;2029446;70;20152;-74
2023/09/28 01:30:27;;;;;;;9.30;3.20;;;;;;;15.18;62.99;93067.88;2028925;70;20165;-73
2023/09/28 01:32:53;;;;;;;7.47;3.60;;;;;;;15.16;63.08;93081.94;2029379;70;20175;-74
2023/09/28 01:35:20;;;;;;;8.10;3.30;;;;;;;15.13;63.05;93077.56;2028967;70;20160;-73
2023/09/28 01:38:14;;;;;;;6.53;3.30;;;;;;;15.10;63.90;93088.06;2029177;70;20161;-73
2023/09/28 01:40:42;;;;;;;6.10;3.25;;;;;;;15.07;63.40;93085.75;2029530;70;20160;-74
2023/09/28 01:43:08;;;;;;;6.97;3.90;;;;;;;14.95;63.46;93085.88;2028757;70;20154;-73
2023/09/28 01:45:34;;;;;;;6.72;3.30;;;;;;;14.97;63.70;93091.63;2029599;70;20570;-73
2023/09/28 01:48:01;;;;;;;6.95;3.75;;;;;;;14.97;63.17;93081.03;2029154;70;20644;-73
2023/09/28 01:50:27;;;;;;;7.50;3.60;;;;;;;14.69;64.32;93076.75;2026389;70;20222;-74
2023/09/28 01:53:02;;;;;;;9.05;3.40;;;;;;;14.83;64.22;93085.97;2026655;70;20606;-73
2023/09/28 01:55:28;;;;;;;10.80;3.63;;;;;;;14.83;64.06;93091.66;2026440;70;20148;-74
2023/09/28 01:57:55;;;;;;;7.82;3.47;;;;;;;14.74;63.93;93087.66;2026134;71;20142;-74
2023/09/28 02:00:22;;;;;;;6.47;3.05;;;;;;;14.89;61.51;93088.38;2025285;70;20188;-73
2023/09/28 02:02:51;;;;;;;5.47;2.97;;;;;;;14.89;60.85;93085.56;2026441;71;20179;-73
2023/09/28 02:05:18;;;;;;;9.55;3.30;;;;;;;14.87;62.04;93089.03;2028036;70;20314;-74
2023/09/28 02:07:45;;;;;;;8.80;3.65;;;;;;;14.29;64.86;93098.00;2027838;70;20137;-73
2023/09/28 02:10:11;;;;;;;10.18;3.83;;;;;;;14.25;65.79;93101.38;2025762;71;20165;-74
2023/09/28 02:12:41;;;;;;;5.95;3.15;;;;;;;14.52;64.70;93095.00;2026174;71;20157;-72
2023/09/28 02:15:10;;;;;;;9.73;3.83;;;;;;;14.55;64.58;93090.91;2026944;70;20151;-73
2023/09/28 02:17:36;;;;;;;6.68;3.35;;;;;;;14.46;64.73;93097.50;2029201;70;20169;-73
2023/09/28 02:20:08;;;;;;;6.38;3.35;;;;;;;14.39;64.79;93092.88;2030119;70;20113;-73
2023/09/28 02:22:37;;;;;;;7.85;3.55;;;;;;;14.35;65.04;93104.72;2030230;70;20144;-73
2023/09/28 02:25:05;;;;;;;13.00;3.58;;;;;;;14.35;65.28;93101.16;2029712;70;20574;-73
2023/09/28 02:27:31;;;;;;;7.10;3.33;;;;;;;14.26;65.69;93107.75;2029633;70;20156;-73
2023/09/28 02:29:59;;;;;;;5.80;3.30;;;;;;;14.19;65.73;93104.56;2029487;70;20665;-73
2023/09/28 02:32:24;;;;;;;7.32;3.40;;;;;;;14.20;66.18;93108.16;2029556;70;20261;-73
2023/09/28 02:34:50;;;;;;;5.95;3.05;;;;;;;14.17;65.86;93109.41;2030087;70;20161;-74
2023/09/28 02:37:16;;;;;;;7.30;3.63;;;;;;;14.14;65.63;93107.81;2029508;70;20201;-73
2023/09/28 02:39:43;;;;;;;7.22;3.42;;;;;;;14.10;66.08;93116.81;2030033;70;20148;-73
2023/09/28 02:42:08;;;;;;;7.95;3.50;;;;;;;13.87;66.56;93114.13;2026664;70;20152;-75
2023/09/28 02:44:34;;;;;;;9.68;3.60;;;;;;;13.78;67.12;93121.44;2029680;70;20157;-74
2023/09/28 02:47:05;;;;;;;5.82;3.47;;;;;;;13.87;66.54;93114.13;2029715;70;20160;-73
2023/09/28 02:49:34;;;;;;;7.32;3.45;;;;;;;13.83;66.96;93108.97;2026775;70;20160;-74
2023/09/28 02:52:02;;;;;;;10.10;3.35;;;;;;;13.90;66.38;93105.13;2029405;70;20160;-74
2023/09/28 02:54:29;;;;;;;6.38;3.53;;;;;;;13.89;66.05;93112.16;2029963;70;20156;-74
2023/09/28 02:56:55;;;;;;;6.78;3.05;;;;;;;13.81;66.13;93108.88;2029354;70;20148;-74
2023/09/28 02:59:24;;;;;;;9.35;3.33;;;;;;;13.83;66.19;93117.47;2029450;70;20228;-74
2023/09/28 03:01:51;;;;;;;11.13;3.75;;;;;;;13.60;66.38;93114.75;2029139;70;20248;-74
2023/09/28 03:04:18;;;;;;;8.85;3.38;;;;;;;13.63;66.78;93116.34;2029019;70;20232;-74
2023/09/28 03:06:45;;;;;;;7.97;3.47;;;;;;;13.69;66.42;93123.06;2029344;70;20144;-75
2023/09/28 03:09:12;;;;;;;7.25;3.40;;;;;;;13.59;67.08;93122.50;2031104;70;20535;-74
2023/09/28 03:11:42;;;;;;;7.35;3.42;;;;;;;13.61;66.37;93113.44;2033005;70;20139;-74
2023/09/28 03:14:08;;;;;;;7.90;3.15;;;;;;;13.57;67.36;93128.06;2032988;70;20159;-74
2023/09/28 03:16:34;;;;;;;11.85;3.22;;;;;;;13.59;66.86;93119.69;2032468;70;20145;-74
2023/09/28 03:19:02;;;;;;;7.25;3.25;;;;;;;13.60;66.84;93126.06;2030385;70;20153;-73
2023/09/28 03:21:31;;;;;;;7.20;3.17;;;;;;;13.54;66.70;93120.09;2029504;70;20152;-73
2023/09/28 03:24:00;;;;;;;8.82;3.22;;;;;;;13.62;66.43;93131.88;2029414;70;20157;-72
2023/09/28 03:26:29;;;;;;;9.15;3.58;;;;;;;13.55;66.93;93133.59;2029677;70;20138;-74
2023/09/28 03:28:56;;;;;;;5.78;2.92;;;;;;;13.58;66.08;93137.28;2029838;70;20163;-73
2023/09/28 03:31:21;;;;;;;10.10;3.35;;;;;;;13.42;67.32;93145.56;2029814;70;20261;-74
2023/09/28 03:33:47;;;;;;;9.57;3.35;;;;;;;13.55;66.83;93147.00;2029676;70;20169;-74
2023/09/28 03:36:13;;;;;;;7.15;3.00;;;;;;;13.74;65.67;93152.34;2029432;70;20136;-74
2023/09/28 03:38:38;;;;;;;6.20;2.95;;;;;;;13.51;66.49;93153.16;2029504;70;20596;-74
2023/09/28 03:41:06;;;;;;;8.18;3.22;;;;;;;13.48;66.69;93155.16;2029869;70;20153;-73
2023/09/28 03:43:33;;;;;;;11.10;3.42;;;;;;;13.55;66.38;93149.84;2029624;70;20248;-73
2023/09/28 03:45:59;;;;;;;5.03;2.97;;;;;;;13.44;66.86;93146.44;2029909;70;20151;-75
2023/09/28 03:48:25;;;;;;;6.28;3.20;;;;;;;13.51;66.83;93144.69;2029891;70;20600;-74
2023/09/28 03:50:51;;;;;;;11.40;3.40;;;;;;;13.51;67.17;93152.44;2029659;70;20148;-75
2023/09/28 03:53:17;;;;;;;6.80;2.60;;;;;;;13.43;66.75;93144.97;2029942;70;20145;-73
2023/09/28 03:55:46;;;;;;;10.43;3.00;;;;;;;13.56;66.47;93154.88;2029704;70;20157;-73
2023/09/28 03:58:12;;;;;;;7.25;3.42;;;;;;;13.66;65.71;93149.81;2029826;70;20229;-74
2023/09/28 04:00:37;;;;;;;5.80;2.90;;;;;;;13.71;65.89;93151.50;2029504;70;20553;-73
2023/09/28 04:03:03;;;;;;;4.75;2.60;;;;;;;13.69;66.18;93156.28;2030113;70;20568;-74
2023/09/28 04:05:29;;;;;;;6.22;2.85;;;;;;;13.67;66.10;93156.94;2029717;70;20239;-74
2023/09/28 04:07:55;;;;;;;5.60;2.85;;;;;;;13.61;65.39;93162.25;2029800;70;20161;-74
2023/09/28 04:10:21;;;;;;;9.43;3.17;;;;;;;13.70;64.75;93169.84;2029543;70;20137;-74
2023/09/28 04:12:46;;;;;;;6.78;3.25;;;;;;;13.51;66.60;93163.75;2029549;70;20153;-74
2023/09/28 04:15:12;;;;;;;7.45;3.58;;;;;;;13.47;66.57;93169.94;2029756;70;20156;-74
2023/09/28 04:17:37;;;;;;;10.63;3.20;;;;;;;13.53;66.03;93169.53;2029755;70;20237;-73
2023/09/28 04:20:06;;;;;;;5.72;3.22;;;;;;;13.50;66.31;93173.59;2029743;70;20606;-73
2023/09/28 04:22:32;;;;;;;6.70;3.03;;;;;;;13.47;66.20;93173.50;2029794;70;20151;-73
2023/09/28 04:24:58;;;;;;;6.68;3.10;;;;;;;13.51;66.13;93175.78;2029754;70;20609;-73
2023/09/28 04:27:24;;;;;;;8.57;3.25;;;;;;;13.47;65.96;93172.75;2029455;70;20589;-73
2023/09/28 04:29:49;;;;;;;6.22;3.35;;;;;;;13.50;65.92;93177.16;2029772;70;20152;-73
2023/09/28 04:32:15;;;;;;;6.28;3.08;;;;;;;13.44;66.22;93171.16;2029576;70;20140;-74
2023/09/28 04:34:41;;;;;;;5.80;3.03;;;;;;;13.44;66.44;93177.53;2029758;70;20144;-75
2023/09/28 04:37:06;;;;;;;8.75;3.50;;;;;;;13.41;65.90;93178.78;2029006;70;20156;-73
2023/09/28 04:39:34;;;;;;;12.20;4.88;;;;;;;13.39;66.02;93178.66;2029660;70;20147;-74
2023/09/28 04:41:59;;;;;;;10.95;5.10;;;;;;;13.41;66.30;93175.22;2029334;70;20153;-73
2023/09/28 04:44:25;;;;;;;9.60;4.43;;;;;;;13.37;67.00;93184.19;2029449;70;20163;-73
2023/09/28 04:46:50;;;;;;;9.60;3.75;;;;;;;13.37;67.06;93181.38;2029802;70;20156;-73
2023/09/28 04:49:19;;;;;;;10.20;4.60;;;;;;;13.40;66.46;93190.72;2029595;70;20198;-74
2023/09/28 04:51:45;;;;;;;11.15;4.72;;;;;;;13.36;66.11;93185.56;2029586;70;20148;-73
2023/09/28 04:54:11;;;;;;;10.18;4.50;;;;;;;13.35;66.84;93180.53;2029594;70;20184;-74
2023/09/28 04:56:37;;;;;;;12.43;4.28;;;;;;;13.28;67.39;93190.72;2028874;70;20180;-74
2023/09/28 04:59:03;;;;;;;7.95;4.05;;;;;;;13.32;67.23;93185.31;2029344;70;20156;-73
2023/09/28 05:01:30;;;;;;;9.10;4.05;;;;;;;13.03;67.46;93193.47;2029614;70;20152;-74
2023/09/28 05:03:56;;;;;;;11.70;4.20;;;;;;;12.66;69.68;93197.66;2029812;70;20151;-73
2023/09/28 05:06:22;;;;;;;7.88;4.00;;;;;;;12.96;68.89;93206.47;2029675;70;20149;-74
2023/09/28 05:08:49;;;;;;;7.70;3.90;;;;;;;13.17;67.72;93205.59;2029465;70;20153;-75
2023/09/28 05:11:15;;;;;;;6.38;4.05;;;;;;;13.28;67.63;93201.31;2029595;70;20145;-75
2023/09/28 05:13:42;;;;;;;6.25;3.78;;;;;;;13.27;66.82;93194.91;2029429;70;20171;-74
2023/09/28 05:16:10;;;;;;;12.63;4.10;;;;;;;13.23;67.85;93198.22;2029170;70;20152;-74
2023/09/28 05:18:36;;;;;;;7.18;2.85;;;;;;;13.07;66.54;93171.09;2028970;70;20159;-74
2023/09/28 05:21:02;;;;;;;7.07;2.97;;;;;;;13.44;65.03;93190.94;2029735;70;20157;-73
2023/09/28 05:23:28;;;;;;;4.18;2.50;;;;;;;13.47;63.80;93184.06;2029516;70;20153;-75
2023/09/28 05:25:53;;;;;;;6.25;2.67;;;;;;;13.58;63.51;93188.22;2029580;70;20148;-74
2023/09/28 05:28:19;;;;;;;4.57;2.80;;;;;;;13.57;63.15;93173.34;2029079;70;20149;-73
2023/09/28 05:30:44;;;;;;;6.80;2.80;;;;;;;13.72;62.32;93181.25;2028769;70;20559;-73
2023/09/28 05:33:10;;;;;;;5.78;2.70;;;;;;;13.72;62.42;93178.44;2029429;70;20184;-73
2023/09/28 05:35:36;;;;;;;5.55;2.53;;;;;;;13.75;63.29;93189.88;2029704;70;20148;-73
2023/09/28 05:38:02;;;;;;;3.65;2.42;;;;;;;13.82;63.90;93195.25;2029652;70;20156;-74
2023/09/28 05:40:27;;;;;;;7.95;2.47;;;;;;;13.79;63.09;93196.50;2029653;70;20179;-74
2023/09/28 05:42:54;;;;;;;8.52;2.53;;;;;;;13.77;63.42;93199.19;2029497;70;20597;-74
2023/09/28 05:45:20;;;;;;;8.05;2.83;;;;;;;13.84;62.14;93198.19;2029306;70;20185;-74
2023/09/28 05:47:47;;;;;;;6.97;2.50;;;;;;;13.70;61.97;93200.22;2028454;70;20471;-74
2023/09/28 05:50:12;;;;;;;7.18;2.47;;;;;;;13.77;61.75;93204.13;2029300;70;20149;-75
2023/09/28 05:52:39;;;;;;;6.43;2.88;;;;;;;13.90;61.17;93212.69;2029404;70;20239;-73
2023/09/28 05:55:05;;;;;;;6.30;2.80;;;;;;;14.02;61.72;93204.16;2029570;70;20152;-75
2023/09/28 05:57:30;;;;;;;4.40;2.53;;;;;;;13.99;62.49;93203.28;2029116;70;20241;-75
2023/09/28 05:59:56;;;;;;;5.13;2.80;;;;;;;14.01;61.58;93207.59;2029419;70;20145;-76
2023/09/28 06:02:21;;;;;;;7.28;3.50;;;;;;;14.04;61.14;93209.19;2029395;70;20245;-74
2023/09/28 06:04:47;;;;;;;6.38;2.55;;;;;;;14.08;61.70;93209.41;2029566;70;20144;-74
2023/09/28 06:07:13;;;;;;;6.88;2.60;;;;;;;14.07;62.54;93219.28;2029602;70;20152;-75
2023/09/28 06:09:40;;;;;;;4.45;2.42;;;;;;;14.18;61.88;93204.31;2029715;70;20152;-76
2023/09/28 06:12:06;;;;;;;3.65;2.50;;;;;;;14.25;62.73;93208.97;2029349;70;20171;-73
2023/09/28 06:14:32;;;;;;;9.43;2.70;;;;;;;14.30;63.33;93202.16;2029195;70;20140;-74
2023/09/28 06:16:58;;;;;;;4.82;2.40;;;;;;;14.35;63.10;93200.28;2029552;70;20187;-75
2023/09/28 06:19:24;;;;;;;8.43;3.13;;;;;;;14.32;63.12;93202.25;2028661;70;20182;-73
2023/09/28 06:21:49;;;;;;;11.50;4.30;;;;;;;14.07;63.83;93205.13;2029495;70;20145;-74
2023/09/28 06:24:15;;;;;;;8.50;5.40;;;;;;;14.24;62.61;93211.03;2029036;70;20198;-73
2023/09/28 06:26:40;;;;;;;9.93;6.15;;;;;;;14.33;63.32;93208.66;2029312;70;20145;-74
2023/09/28 06:29:07;;;;;;;11.57;6.90;;;;;;;14.37;64.44;93208.88;2029401;70;20655;-74
2023/09/28 06:31:33;;;;;;;13.07;6.22;;;;;;;14.50;63.58;93199.72;2029254;70;20144;-74
2023/09/28 06:33:59;;;;;;;10.07;5.47;;;;;;;14.54;63.15;93199.22;2029152;70;20618;-74
2023/09/28 06:36:25;;;;;;;11.55;5.70;;;;;;;14.53;63.71;93206.25;2029678;70;20149;-74
2023/09/28 06:38:51;;;;;;;9.75;5.72;;;;;;;14.39;64.50;93197.69;2029446;70;20191;-74
2023/09/28 06:41:18;;;;;;;8.75;3.60;;;;;;;14.35;62.49;93220.13;2029487;70;20153;-75
2023/09/28 06:43:43;;;;;;;4.20;3.20;;;;;;;14.45;61.82;93221.41;2029384;70;20145;-74
2023/09/28 06:46:10;;;;;;;6.82;4.18;;;;;;;14.81;61.21;93207.75;2031378;70;20695;-74
2023/09/28 06:48:35;;;;;;;6.53;3.83;;;;;;;14.94;61.00;93221.22;2029543;70;20137;-75
2023/09/28 06:51:01;;;;;;;16.25;5.40;;;;;;;14.52;63.70;93235.91;2029184;70;20156;-75
2023/09/28 06:53:28;;;;;;;7.93;4.82;;;;;;;14.89;63.37;93230.13;2029414;70;20616;-75
2023/09/28 06:55:59;;;;;;;9.05;4.88;;;;;;;14.95;63.90;93234.03;2029643;70;20144;-75
2023/09/28 06:58:25;;;;;;;12.80;4.70;;;;;;;15.20;63.10;93232.47;2029232;70;20159;-76
2023/09/28 07:00:51;;;;;;;8.38;4.43;;;;;;;15.26;62.68;93238.47;2029502;70;20165;-74
2023/09/28 07:03:16;;;;;;;11.98;4.30;;;;;;;15.50;60.85;93222.69;2029688;70;20157;-74
2023/09/28 07:05:42;;;;;;;7.47;4.63;;;;;;;15.59;60.84;93228.78;2029926;70;20240;-74
2023/09/28 07:08:08;;;;;;;8.27;4.10;;;;;;;15.43;61.44;93231.50;2029636;70;20226;-75
2023/09/28 07:10:35;;;;;;;7.78;3.97;;;;;;;15.61;58.71;93226.03;2027183;70;20152;-73
2023/09/28 07:13:03;;;;;;;8.80;4.20;;;;;;;15.34;61.02;93230.34;2029180;70;20255;-74
2023/09/28 07:15:30;;;;;;;10.43;4.43;;;;;;;15.54;61.08;93242.03;2030032;70;20152;-74
2023/09/28 07:17:56;;;;;;;9.00;4.18;;;;;;;15.37;61.81;93248.22;2029988;70;20184;-74
2023/09/28 07:20:22;;;;;;;14.10;4.63;;;;;;;15.77;59.96;93249.59;2030193;70;20221;-74
2023/09/28 07:22:48;;;;;;;11.73;5.03;;;;;;;15.88;60.67;93243.03;2029967;70;20157;-75
2023/09/28 07:25:14;;;;;;;13.00;5.60;;;;;;;15.97;60.23;93247.75;2029484;70;20163;-76
2023/09/28 07:27:44;;;;;;;12.73;5.38;;;;;;;16.10;60.10;93251.22;2029823;70;20172;-75
2023/09/28 07:30:11;;;;;;;9.05;4.72;;;;;;;16.10;60.53;93251.94;2029347;70;20155;-74
2023/09/28 07:32:38;;;;;;;6.90;4.45;;;;;;;16.13;61.35;93258.47;2029879;70;20493;-75
2023/09/28 07:35:04;;;;;;;10.50;5.22;;;;;;;15.70;62.02;93256.31;2029694;70;20160;-75
2023/09/28 07:37:31;;;;;;;9.82;5.13;;;;;;;16.10;60.87;93265.41;2029736;70;20155;-75
2023/09/28 07:39:56;;;;;;;8.45;4.60;;;;;;;16.24;60.72;93260.41;2029953;70;20520;-76
2023/09/28 07:42:23;;;;;;;7.88;5.07;;;;;;;16.59;61.35;93265.66;2029140;70;20622;-75
2023/09/28 07:44:51;;;;;;;7.10;4.20;;;;;;;16.79;61.90;93251.69;2029273;70;20217;-75
2023/09/28 07:47:18;;;;;;;8.63;4.25;;;;;;;17.09;60.52;93266.59;2029587;70;20149;-74
2023/09/28 07:49:45;;;;;;;11.80;4.90;;;;;;;17.13;59.79;93268.84;2029704;70;20221;-73
2023/09/28 07:52:11;;;;;;;12.68;5.00;;;;;;;17.41;59.16;93270.16;2029249;70;20168;-74
2023/09/28 07:54:37;;;;;;;16.20;5.80;;;;;;;17.61;58.96;93256.06;2029722;70;20159;-72
2023/09/28 07:57:05;;;;;;;7.00;3.90;;;;;;;17.40;58.07;93262.97;2029568;70;20149;-73
2023/09/28 07:59:34;;;;;;;7.45;3.40;;;;;;;18.00;56.47;93260.59;2029569;70;20267;-77
2023/09/28 08:02:00;;;;;;;5.47;3.13;;;;;;;18.17;55.87;93250.63;2030509;70;20214;-74
2023/09/28 08:04:26;;;;;;;5.30;3.22;;;;;;;18.15;55.29;93261.94;2029495;70;20616;-71
2023/09/28 08:06:52;;;;;;;5.35;2.90;;;;;;;18.67;55.78;93256.91;2030062;70;20193;-74
2023/09/28 08:09:19;;;;;;;7.35;3.10;;;;;;;19.04;54.15;93253.38;2030029;70;20160;-73
2023/09/28 08:11:49;;;;;;;10.00;3.55;;;;;;;19.17;54.42;93252.44;2029635;70;20149;-77
2023/09/28 08:14:18;;;;;;;7.28;3.10;;;;;;;19.16;51.88;93245.28;2029592;70;20152;-77
2023/09/28 08:16:44;;;;;;;5.43;2.70;;;;;;;19.40;49.93;93241.88;2029739;70;20607;-74
2023/09/28 08:19:11;;;;;;;4.63;2.67;;;;;;;20.02;50.83;93234.84;2030096;70;20524;-77
2023/09/28 08:21:38;;;;;;;6.40;3.00;;;;;;;20.03;51.20;93236.28;2030322;70;20156;-76
2023/09/28 08:24:10;;;;;;;7.07;3.20;;;;;;;20.20;51.18;93225.38;2030271;70;20164;-76
2023/09/28 08:26:36;;;;;;;5.70;2.77;;;;;;;20.29;50.35;93215.69;2029383;70;20204;-75
2023/09/28 08:29:05;;;;;;;5.55;2.60;;;;;;;20.08;49.38;93219.28;2029740;70;20178;-76
2023/09/28 08:31:32;;;;;;;6.88;2.17;;;;;;;20.61;48.81;93212.44;2029491;70;20187;-74
2023/09/28 08:33:59;;;;;;;5.07;2.13;;;;;;;20.86;47.89;93211.09;2029647;70;20490;-73
2023/09/28 08:36:26;;;;;;;5.55;1.90;;;;;;;21.50;47.44;93218.03;2029331;70;20236;-74
2023/09/28 08:38:51;;;;;;;4.60;2.45;;;;;;;21.29;45.81;93221.66;2029024;70;20156;-76
2023/09/28 08:41:34;;;;;;;4.28;2.55;;;;;;;21.82;45.90;93211.72;2029671;70;20148;-74
2023/09/28 08:44:04;;;;;;;4.22;2.63;;;;;;;21.97;47.68;93212.84;2029014;70;20160;-75
2023/09/28 08:46:32;;;;;;;5.22;3.10;;;;;;;21.87;49.08;93215.44;2029632;70;20145;-74
2023/09/28 08:49:02;;;;;;;5.28;2.78;;;;;;;22.25;47.32;93215.75;2029622;70;20635;-75
2023/09/28 08:51:30;;;;;;;3.30;2.50;;;;;;;22.37;46.95;93221.78;2029646;70;20600;-74
2023/09/28 08:53:57;;;;;;;3.60;2.53;;;;;;;22.53;46.00;93219.31;2029271;70;20172;-75
2023/09/28 08:56:23;;;;;;;6.72;2.65;;;;;;;22.80;45.90;93226.41;2029662;70;20596;-74
2023/09/28 08:58:50;;;;;;;2.97;2.30;;;;;;;22.94;45.32;93214.56;2029431;70;20148;-74
2023/09/28 09:01:16;;;;;;;7.15;2.47;;;;;;;22.77;45.60;93212.69;2029153;70;20227;-73
2023/09/28 09:03:42;;;;;;;5.20;2.50;;;;;;;23.62;43.18;93213.13;2029319;70;20172;-73
2023/09/28 09:06:10;;;;;;;4.20;2.20;;;;;;;23.96;43.35;93216.72;2029638;70;20589;-74
2023/09/28 09:08:41;;;;;;;7.25;2.88;;;;;;;23.90;41.90;93210.13;2029771;70;20152;-74
2023/09/28 09:11:10;;;;;;;6.85;2.50;;;;;;;24.34;41.20;93213.81;2029874;70;20145;-73
2023/09/28 09:13:48;;;;;;;5.38;2.60;;;;;;;24.38;39.56;93203.84;2029012;70;20613;-75
2023/09/28 09:16:14;;;;;;;4.40;2.50;;;;;;;23.57;39.81;93207.31;2029602;70;20204;-74
2023/09/28 09:18:41;;;;;;;3.50;2.30;;;;;;;24.70;40.28;93198.63;2028677;70;20172;-73
2023/09/28 09:21:07;;;;;;;4.97;2.30;;;;;;;25.29;39.85;93205.28;2029478;70;20630;-74
2023/09/28 09:23:33;;;;;;;4.10;2.40;;;;;;;25.73;39.29;93198.63;2029736;70;20187;-74
2023/09/28 09:25:58;;;;;;;5.90;2.08;;;;;;;25.94;39.15;93199.63;2029541;70;20184;-76
2023/09/28 09:28:29;;;;;;;4.10;2.33;;;;;;;26.04;37.31;93211.25;2029524;70;20147;-74
2023/09/28 09:30:55;;;;;;;4.63;2.50;;;;;;;25.57;38.23;93207.09;2029191;70;20161;-75
2023/09/28 09:33:22;;;;;;;4.82;2.30;;;;;;;26.64;37.22;93197.44;2029595;70;20263;-76
2023/09/28 09:35:50;;;;;;;4.63;2.22;;;;;;;27.05;37.63;93198.47;2029534;70;20624;-75
2023/09/28 09:38:31;;;;;;;4.53;2.03;;;;;;;26.19;37.70;93185.44;2029847;70;20507;-75
2023/09/28 09:40:58;;;;;;;3.72;2.33;;;;;;;26.92;37.32;93203.44;2029225;70;20128;-76
2023/09/28 09:43:24;;;;;;;3.35;2.25;;;;;;;27.26;35.64;93200.09;2029421;70;20155;-75
2023/09/28 09:45:49;;;;;;;5.65;2.85;;;;;;;28.06;34.90;93201.19;2028995;70;20509;-76
2023/09/28 09:48:16;;;;;;;5.53;2.35;;;;;;;27.56;35.47;93196.63;2029607;70;20143;-75
2023/09/28 09:50:43;;;;;;;5.05;2.20;;;;;;;27.34;34.13;93193.63;2029568;70;20152;-75
2023/09/28 09:53:09;;;;;;;7.20;2.50;;;;;;;27.35;35.54;93192.19;2029553;70;20148;-75
2023/09/28 09:55:40;;;;;;;5.90;2.60;;;;;;;28.40;36.11;93188.28;2029325;70;20179;-74
2023/09/28 09:58:07;;;;;;;6.90;2.25;;;;;;;29.58;33.28;93191.16;2029212;70;20155;-75
2023/09/28 10:00:37;;;;;;;6.13;2.55;;;;;;;29.88;33.57;93180.91;2029617;70;20194;-75
2023/09/28 10:03:05;;;;;;;3.95;2.40;;;;;;;29.64;32.76;93184.59;2029538;70;20213;-75
2023/09/28 10:05:32;;;;;;;3.67;2.53;;;;;;;30.44;32.54;93179.19;2029055;70;20180;-76
2023/09/28 10:07:59;;;;;;;7.25;2.55;;;;;;;29.81;34.16;93174.38;2029576;70;20148;-76
2023/09/28 10:10:27;;;;;;;4.15;2.22;;;;;;;30.28;30.65;93179.25;2029537;70;20153;-76
2023/09/28 10:12:55;;;;;;;6.15;2.45;;;;;;;32.16;31.10;93183.41;2029356;70;20144;-76
2023/09/28 10:15:21;;;;;;;3.45;2.10;;;;;;;32.88;29.11;93169.28;2029240;70;20233;-75
2023/09/28 10:17:47;;;;;;;5.55;2.25;;;;;;;32.12;28.84;93164.53;2029504;70;20638;-77
2023/09/28 10:20:14;;;;;;;7.15;2.22;;;;;;;32.42;29.52;93168.50;2029559;70;20149;-76
2023/09/28 10:22:47;;;;;;;4.90;2.50;;;;;;;32.58;30.00;93162.47;2029488;70;20540;-76
2023/09/28 10:25:15;;;;;;;3.72;2.08;;;;;;;33.29;29.44;93162.78;2029760;70;20222;-75
2023/09/28 10:27:47;;;;;;;3.20;2.28;;;;;;;32.22;27.52;93157.84;2029568;70;20648;-78
2023/09/28 10:30:18;;;;;;;4.50;2.30;;;;;;;31.71;28.91;93149.00;2029544;70;20141;-78
2023/09/28 10:32:44;;;;;;;6.60;2.33;;;;;;;33.03;27.62;93158.84;2029905;70;20594;-79
2023/09/28 10:35:28;;;;;;;5.30;2.50;;;;;;;33.83;28.21;93161.06;2029920;70;20612;-76
2023/09/28 10:38:20;;;;;;;4.53;2.50;;;;;;;32.59;29.05;93139.84;2030092;70;20620;-76
2023/09/28 10:40:58;;;;;;;8.67;2.60;;;;;;;34.64;28.53;93152.81;2030011;70;20619;-76
2023/09/28 10:43:33;;;;;;;3.30;2.10;;;;;;;34.19;27.31;93147.22;2029693;70;20153;-74
2023/09/28 10:46:07;;;;;;;6.32;2.65;;;;;;;34.20;28.35;93153.78;2029692;70;20205;-75
2023/09/28 10:48:44;;;;;;;4.88;2.42;;;;;;;36.14;25.96;93147.50;2029823;70;20148;-74
2023/09/28 10:51:15;;;;;;;5.22;2.25;;;;;;;37.15;26.46;93145.88;2029691;70;20161;-75
2023/09/28 10:53:42;;;;;;;5.75;2.38;;;;;;;35.77;25.03;93141.94;2029958;70;20172;-75
2023/09/28 10:56:08;;;;;;;5.82;2.13;;;;;;;36.31;25.26;93141.88;2029664;70;20157;-75
2023/09/28 10:58:35;;;;;;;6.72;2.58;;;;;;;38.49;24.47;93147.81;2029814;70;20297;-74
2023/09/28 11:01:07;;;;;;;6.85;2.40;;;;;;;39.14;22.53;93151.16;2029987;70;20141;-78
2023/09/28 11:03:34;;;;;;;4.43;2.47;;;;;;;41.20;22.74;93150.16;2026852;70;20148;-75
2023/09/28 11:06:04;;;;;;;6.03;2.13;;;;;;;39.90;21.93;93148.72;2030107;70;20157;-76
2023/09/28 11:08:33;;;;;;;4.53;1.92;;;;;;;38.12;23.54;93144.03;2029809;70;20153;-76
2023/09/28 11:11:01;;;;;;;6.47;2.33;;;;;;;42.40;22.12;93147.00;2029957;70;20121;-77
2023/09/28 11:13:30;;;;;;;6.05;2.40;;;;;;;42.11;21.92;93135.97;2029828;70;20149;-76
2023/09/28 11:15:56;;;;;;;2.80;2.00;;;;;;;43.76;20.54;93141.59;2029755;70;20179;-78
2023/09/28 11:18:26;;;;;;;7.53;2.15;;;;;;;44.92;19.38;93139.72;2029585;70;20160;-80
2023/09/28 11:20:55;;;;;;;4.10;1.92;;;;;;;42.78;20.28;93126.44;2030128;70;20307;-78
2023/09/28 11:23:20;;;;;;;5.70;2.00;;;;;;;45.00;19.23;93127.31;2028851;70;20605;-79
2023/09/28 11:25:47;;;;;;;4.93;2.10;;;;;;;43.04;19.20;93135.41;2029502;70;20217;-78
2023/09/28 11:28:14;;;;;;;6.38;2.00;;;;;;;44.08;20.24;93136.00;2029750;70;20150;-79
2023/09/28 11:30:40;;;;;;;8.15;2.22;;;;;;;45.36;18.70;93129.44;2029305;70;20237;-78
2023/09/28 11:33:07;;;;;;;3.08;1.83;;;;;;;43.18;19.00;93130.91;2029611;70;20608;-78
2023/09/28 11:35:39;;;;;;;7.85;2.00;;;;;;;46.08;18.16;93143.25;2029041;70;20523;-78